createdAt,value
2023-01-05T00:02:04.131Z,10.50
2023-01-05T00:04:30.837Z,10.40
2023-01-05T00:06:57.497Z,10.50
2023-01-05T00:09:24.140Z,10.40
2023-01-05T00:12:09.657Z,10.40
2023-01-05T00:14:55.059Z,10.30
2023-01-05T00:17:41.353Z,10.40
2023-01-05T00:20:32.297Z,10.40
2023-01-05T00:22:58.912Z,10.30
2023-01-05T00:25:26.987Z,10.40
2023-01-05T00:27:54.016Z,10.40
2023-01-05T00:30:22.009Z,10.40
2023-01-05T00:32:48.906Z,10.40
2023-01-05T00:35:16.330Z,10.40
2023-01-05T00:37:43.694Z,10.40
2023-01-05T00:40:11.809Z,10.40
2023-01-05T00:42:38.652Z,10.50
2023-01-05T00:45:06.699Z,10.40
2023-01-05T00:47:33.459Z,10.40
2023-01-05T00:50:00.212Z,10.40
2023-01-05T00:52:26.862Z,10.30
2023-01-05T00:54:53.522Z,10.30
2023-01-05T00:57:20.221Z,10.20
2023-01-05T00:59:46.974Z,10.10
2023-01-05T01:02:14.602Z,10.00
2023-01-05T01:04:41.402Z,9.80
2023-01-05T01:07:08.143Z,9.70
2023-01-05T01:09:34.965Z,9.60
2023-01-05T01:12:01.917Z,9.60
2023-01-05T01:14:28.669Z,9.50
2023-01-05T01:16:55.455Z,9.50
2023-01-05T01:19:23.023Z,9.50
2023-01-05T01:21:49.905Z,9.40
2023-01-05T01:24:18.659Z,9.30
2023-01-05T01:26:45.354Z,9.30
2023-01-05T01:29:12.243Z,9.30
2023-01-05T01:31:39.140Z,9.30
2023-01-05T01:34:06.009Z,9.30
2023-01-05T01:36:32.709Z,9.30
2023-01-05T01:38:59.529Z,9.30
2023-01-05T01:41:26.740Z,9.30
2023-01-05T01:43:54.508Z,9.30
2023-01-05T01:46:24.587Z,9.40
2023-01-05T01:48:59.709Z,9.40
2023-01-05T01:51:37.414Z,9.40
2023-01-05T01:54:08.292Z,9.40
2023-01-05T01:56:36.840Z,9.40
2023-01-05T01:59:03.563Z,9.40
2023-01-05T02:01:30.965Z,9.40
2023-01-05T02:03:57.897Z,9.40
2023-01-05T02:06:24.565Z,9.50
2023-01-05T02:08:53.191Z,9.50
2023-01-05T02:11:39.817Z,9.50
2023-01-05T02:14:17.264Z,9.50
2023-01-05T02:17:13.252Z,9.60
2023-01-05T02:19:58.493Z,9.60
2023-01-05T02:22:44.066Z,9.60
2023-01-05T02:25:33.310Z,9.60
2023-01-05T02:28:17.821Z,9.60
2023-01-05T02:31:17.434Z,9.60
2023-01-05T02:34:03.210Z,9.70
2023-01-05T02:36:34.770Z,9.70
2023-01-05T02:39:14.569Z,9.80
2023-01-05T02:41:54.028Z,9.70
2023-01-05T02:44:21.407Z,9.70
2023-01-05T02:47:28.016Z,9.60
2023-01-05T02:49:56.212Z,9.60
2023-01-05T02:52:23.188Z,9.70
2023-01-05T02:54:52.444Z,9.60
2023-01-05T02:57:42.212Z,9.60
2023-01-05T03:00:10.390Z,9.60
2023-01-05T03:02:39.802Z,9.60
2023-01-05T03:05:10.132Z,9.60
2023-01-05T03:07:39.012Z,9.50
2023-01-05T03:10:26.199Z,9.50
2023-01-05T03:13:14.881Z,9.40
2023-01-05T03:15:43.705Z,9.40
2023-01-05T03:18:11.793Z,9.30
2023-01-05T03:20:44.171Z,9.40
2023-01-05T03:23:30.830Z,9.40
2023-01-05T03:26:17.047Z,9.40
2023-01-05T03:29:21.770Z,9.40
2023-01-05T03:32:13.529Z,9.40
2023-01-05T03:35:07.544Z,9.30
2023-01-05T03:37:36.334Z,9.30
2023-01-05T03:40:04.956Z,9.30
2023-01-05T03:42:35.243Z,9.30
2023-01-05T03:45:03.018Z,9.20
2023-01-05T03:47:31.108Z,9.20
2023-01-05T03:49:58.533Z,9.20
2023-01-05T03:52:25.262Z,9.20
2023-01-05T03:54:52.186Z,9.30
2023-01-05T03:57:19.032Z,9.30
2023-01-05T03:59:45.734Z,9.40
2023-01-05T04:02:12.544Z,9.40
2023-01-05T04:04:39.393Z,9.40
2023-01-05T04:07:09.102Z,9.50
2023-01-05T04:09:36.305Z,9.50
2023-01-05T04:12:03.871Z,9.50
2023-01-05T04:14:34.399Z,9.50
2023-01-05T04:17:01.058Z,9.40
2023-01-05T04:19:27.774Z,9.50
2023-01-05T04:21:55.956Z,9.50
2023-01-05T04:24:24.263Z,9.60
2023-01-05T04:26:50.967Z,9.60
2023-01-05T04:29:20.258Z,9.60
2023-01-05T04:31:49.855Z,9.50
2023-01-05T04:34:18.239Z,9.40
2023-01-05T04:36:47.866Z,9.40
2023-01-05T04:39:16.365Z,9.30
2023-01-05T04:41:43.487Z,9.30
2023-01-05T04:44:10.293Z,9.30
2023-01-05T04:46:38.095Z,9.30
2023-01-05T04:49:04.980Z,9.30
2023-01-05T04:51:32.068Z,9.40
2023-01-05T04:53:58.696Z,9.40
2023-01-05T04:56:25.350Z,9.40
2023-01-05T04:58:52.127Z,9.40
2023-01-05T05:01:19.167Z,9.40
2023-01-05T05:03:50.582Z,9.40
2023-01-05T05:06:19.810Z,9.40
2023-01-05T05:08:48.779Z,9.40
2023-01-05T05:11:15.701Z,9.40
2023-01-05T05:13:45.518Z,9.40
2023-01-05T05:16:13.265Z,9.40
2023-01-05T05:18:41.519Z,9.30
2023-01-05T05:21:12.353Z,9.30
2023-01-05T05:23:40.096Z,9.30
2023-01-05T05:26:07.450Z,9.30
2023-01-05T05:28:34.630Z,9.30
2023-01-05T05:31:01.281Z,9.30
2023-01-05T05:33:27.952Z,9.30
2023-01-05T05:35:54.563Z,9.30
2023-01-05T05:38:21.195Z,9.30
2023-01-05T05:40:48.886Z,9.30
2023-01-05T05:43:15.519Z,9.40
2023-01-05T05:45:47.891Z,9.40
2023-01-05T05:48:16.943Z,9.40
2023-01-05T05:50:44.255Z,9.40
2023-01-05T05:53:10.913Z,9.40
2023-01-05T05:55:37.522Z,9.40
2023-01-05T05:58:04.155Z,9.40
2023-01-05T06:00:30.877Z,9.40
2023-01-05T06:02:57.580Z,9.40
2023-01-05T06:05:24.285Z,9.40
2023-01-05T06:07:50.923Z,9.40
2023-01-05T06:10:17.588Z,9.40
2023-01-05T06:12:44.396Z,9.40
2023-01-05T06:15:11.358Z,9.40
2023-01-05T06:17:38.163Z,9.40
2023-01-05T06:20:05.344Z,9.40
2023-01-05T06:22:32.032Z,9.40
2023-01-05T06:24:58.645Z,9.30
2023-01-05T06:27:25.335Z,9.30
2023-01-05T06:29:51.981Z,9.20
2023-01-05T06:32:18.636Z,9.20
2023-01-05T06:34:45.295Z,9.30
2023-01-05T06:37:11.968Z,9.20
2023-01-05T06:39:38.883Z,9.20
2023-01-05T06:42:05.510Z,9.20
2023-01-05T06:44:32.137Z,9.30
2023-01-05T06:46:58.795Z,9.20
2023-01-05T06:49:25.446Z,9.20
2023-01-05T06:51:52.062Z,9.20
2023-01-05T06:54:18.786Z,9.20
2023-01-05T06:56:45.482Z,9.20
2023-01-05T06:59:12.715Z,9.20
2023-01-05T07:01:39.444Z,9.20
2023-01-05T07:04:06.200Z,9.30
2023-01-05T07:06:34.367Z,9.20
2023-01-05T07:09:01.003Z,9.20
2023-01-05T07:11:27.671Z,9.20
2023-01-05T07:13:54.569Z,9.20
2023-01-05T07:16:21.408Z,9.20
2023-01-05T07:18:48.117Z,9.30
2023-01-05T07:21:14.770Z,9.20
2023-01-05T07:23:41.516Z,9.20
2023-01-05T07:26:09.180Z,9.20
2023-01-05T07:28:36.046Z,9.20
2023-01-05T07:31:03.010Z,9.20
2023-01-05T07:33:31.538Z,9.20
2023-01-05T07:36:00.904Z,9.10
2023-01-05T07:38:27.534Z,9.10
2023-01-05T07:40:54.223Z,9.10
2023-01-05T07:43:20.876Z,9.10
2023-01-05T07:45:48.328Z,9.10
2023-01-05T07:48:18.976Z,9.20
2023-01-05T07:50:48.643Z,9.20
2023-01-05T07:53:15.426Z,9.20
2023-01-05T07:55:42.046Z,9.20
2023-01-05T07:58:08.854Z,9.20
2023-01-05T08:00:35.543Z,9.30
2023-01-05T08:03:02.619Z,9.20
2023-01-05T08:05:34.117Z,9.30
2023-01-05T08:08:00.854Z,9.30
2023-01-05T08:10:30.590Z,9.30
2023-01-05T08:13:23.363Z,9.30
2023-01-05T08:15:51.656Z,9.30
2023-01-05T08:18:19.418Z,9.30
2023-01-05T08:20:56.281Z,9.30
2023-01-05T08:23:26.062Z,9.30
2023-01-05T08:25:53.990Z,9.20
2023-01-05T08:28:20.703Z,9.10
2023-01-05T08:30:47.699Z,9.10
2023-01-05T08:33:14.636Z,9.00
2023-01-05T08:35:41.973Z,9.00
2023-01-05T08:38:08.966Z,9.00
2023-01-05T08:40:39.011Z,8.90
2023-01-05T08:43:06.254Z,8.90
2023-01-05T08:45:33.135Z,8.90
2023-01-05T08:48:01.507Z,8.90
2023-01-05T08:50:28.280Z,8.90
2023-01-05T08:52:55.127Z,8.90
2023-01-05T08:55:21.937Z,8.90
2023-01-05T08:57:48.643Z,8.90
2023-01-05T09:00:17.450Z,8.90
2023-01-05T09:02:44.502Z,9.00
2023-01-05T09:05:11.302Z,9.10
2023-01-05T09:07:37.986Z,9.10
2023-01-05T09:10:05.422Z,9.10
2023-01-05T09:12:33.363Z,9.10
2023-01-05T09:15:00.438Z,9.10
2023-01-05T09:17:27.226Z,9.10
2023-01-05T09:19:53.953Z,9.10
2023-01-05T09:22:20.674Z,9.20
2023-01-05T09:24:47.417Z,9.30
2023-01-05T09:27:15.173Z,9.30
2023-01-05T09:29:41.890Z,9.30
2023-01-05T09:32:09.548Z,9.30
2023-01-05T09:34:36.209Z,9.30
2023-01-05T09:37:02.854Z,9.30
2023-01-05T09:39:29.545Z,9.20
2023-01-05T09:41:58.975Z,9.20
2023-01-05T09:44:43.637Z,9.30
2023-01-05T09:47:10.259Z,9.30
2023-01-05T09:49:37.215Z,9.30
2023-01-05T09:52:09.333Z,9.30
2023-01-05T09:54:37.585Z,9.30
2023-01-05T09:57:09.993Z,9.30
2023-01-05T09:59:48.202Z,9.20
2023-01-05T10:02:18.356Z,9.10
2023-01-05T10:04:45.677Z,9.00
2023-01-05T10:07:19.540Z,9.00
2023-01-05T10:09:46.512Z,8.90
2023-01-05T10:12:36.425Z,9.00
2023-01-05T10:15:13.727Z,9.00
2023-01-05T10:17:42.754Z,9.00
2023-01-05T10:20:16.597Z,9.00
2023-01-05T10:22:57.982Z,9.00
2023-01-05T10:25:32.015Z,9.00
2023-01-05T10:27:58.737Z,8.90
2023-01-05T10:30:26.886Z,8.80
2023-01-05T10:33:25.517Z,8.80
2023-01-05T10:36:06.286Z,8.80
2023-01-05T10:38:36.960Z,8.90
2023-01-05T10:41:08.996Z,8.90
2023-01-05T10:43:48.206Z,8.90
2023-01-05T10:46:40.004Z,8.80
2023-01-05T10:49:02.404Z,8.90
2023-01-05T10:51:32.940Z,8.80
2023-01-05T10:54:00.403Z,8.90
2023-01-05T10:56:31.650Z,8.80
2023-01-05T10:59:09.694Z,8.90
2023-01-05T11:01:37.822Z,9.00
2023-01-05T11:06:51.613Z,9.30
2023-01-05T11:09:24.486Z,9.50
2023-01-05T11:11:55.670Z,9.70
2023-01-05T11:14:22.496Z,10.00
2023-01-05T11:16:53.714Z,10.10
2023-01-05T11:19:22.549Z,10.20
2023-01-05T11:21:49.332Z,10.20
2023-01-05T11:24:25.114Z,10.30
2023-01-05T11:26:53.399Z,10.40
2023-01-05T11:29:20.329Z,10.40
2023-01-05T11:31:53.248Z,10.30
2023-01-05T11:34:19.988Z,10.20
2023-01-05T11:36:53.969Z,10.00
2023-01-05T11:39:24.987Z,9.90
2023-01-05T11:41:51.740Z,9.80
2023-01-05T11:44:21.496Z,9.80
2023-01-05T11:46:48.949Z,9.90
2023-01-05T11:49:19.609Z,10.10
2023-01-05T11:51:46.293Z,10.30
2023-01-05T11:54:33.527Z,10.30
2023-01-05T11:57:11.725Z,10.20
2023-01-05T11:59:38.342Z,10.20
2023-01-05T12:02:14.096Z,10.30
2023-01-05T12:04:53.050Z,10.50
2023-01-05T12:07:34.074Z,10.70
2023-01-05T12:10:07.003Z,10.80
2023-01-05T12:12:38.316Z,10.80
2023-01-05T12:15:04.938Z,10.80
2023-01-05T12:17:31.542Z,10.70
2023-01-05T12:20:15.578Z,10.50
2023-01-05T12:23:02.586Z,10.50
2023-01-05T12:25:48.202Z,10.50
2023-01-05T12:28:23.786Z,10.60
2023-01-05T12:32:48.067Z,10.70
2023-01-05T12:34:07.219Z,10.80
2023-01-05T12:36:45.654Z,10.70
2023-01-05T12:39:29.957Z,10.60
2023-01-05T12:42:11.683Z,10.40
2023-01-05T12:44:50.534Z,10.20
2023-01-05T12:47:32.646Z,10.10
2023-01-05T12:50:06.334Z,10.00
2023-01-05T12:52:39.475Z,9.90
2023-01-05T12:55:12.990Z,9.90
2023-01-05T12:57:42.126Z,9.80
2023-01-05T13:00:11.913Z,9.80
2023-01-05T13:02:40.557Z,9.80
2023-01-05T13:05:07.575Z,9.80
2023-01-05T13:07:38.911Z,9.90
2023-01-05T13:10:08.224Z,9.90
2023-01-05T13:12:35.683Z,9.80
2023-01-05T13:15:22.747Z,9.80
2023-01-05T13:17:50.632Z,9.90
2023-01-05T13:20:26.012Z,9.90
2023-01-05T13:22:55.245Z,10.00
2023-01-05T13:25:23.570Z,10.00
2023-01-05T13:27:50.211Z,10.00
2023-01-05T13:30:29.037Z,10.00
2023-01-05T13:33:14.301Z,10.00
2023-01-05T13:35:49.873Z,10.00
2023-01-05T13:38:35.200Z,10.00
2023-01-05T13:41:14.128Z,9.90
2023-01-05T13:43:46.851Z,9.90
2023-01-05T13:46:31.875Z,9.80
2023-01-05T13:49:04.226Z,9.70
2023-01-05T13:51:44.697Z,9.70
2023-01-05T13:54:16.283Z,9.70
2023-01-05T13:56:46.520Z,9.60
2023-01-05T13:59:28.981Z,9.60
2023-01-05T14:02:03.222Z,9.50
2023-01-05T14:04:32.862Z,9.40
2023-01-05T14:07:05.746Z,9.40
2023-01-05T14:09:38.808Z,9.30
2023-01-05T14:12:08.649Z,9.30
2023-01-05T14:14:55.388Z,9.30
2023-01-05T14:17:43.227Z,9.30
2023-01-05T14:20:36.455Z,9.40
2023-01-05T14:23:22.046Z,9.50
2023-01-05T14:25:48.649Z,9.60
2023-01-05T14:28:15.251Z,9.60
2023-01-05T14:30:41.886Z,9.60
2023-01-05T14:33:09.061Z,9.60
2023-01-05T14:35:37.436Z,9.60
2023-01-05T14:38:05.869Z,9.50
2023-01-05T14:40:42.262Z,9.50
2023-01-05T14:43:21.232Z,9.50
2023-01-05T14:45:57.570Z,9.40
2023-01-05T14:48:30.595Z,9.40
2023-01-05T14:51:18.110Z,9.30
2023-01-05T14:53:46.447Z,9.30
2023-01-05T14:56:14.748Z,9.30
2023-01-05T14:58:41.397Z,9.20
2023-01-05T15:03:43.894Z,9.20
2023-01-05T15:06:15.559Z,9.10
2023-01-05T15:08:53.773Z,9.10
2023-01-05T15:11:49.975Z,9.10
2023-01-05T15:14:31.991Z,9.10
2023-01-05T15:16:58.610Z,9.00
2023-01-05T15:19:36.544Z,9.00
2023-01-05T15:22:18.705Z,9.00
2023-01-05T15:25:09.860Z,9.00
2023-01-05T15:27:45.300Z,8.90
2023-01-05T15:30:12.022Z,8.90
2023-01-05T15:32:43.312Z,8.80
2023-01-05T15:35:19.121Z,8.80
2023-01-05T15:37:52.246Z,8.70
2023-01-05T15:40:22.098Z,8.70
2023-01-05T15:42:53.311Z,8.70
2023-01-05T15:45:24.514Z,8.70
2023-01-05T15:47:51.933Z,8.60
2023-01-05T15:50:23.145Z,8.60
2023-01-05T15:53:12.813Z,8.60
2023-01-05T15:55:43.736Z,8.60
2023-01-05T15:58:15.385Z,8.50
2023-01-05T16:00:42.291Z,8.40
2023-01-05T16:03:22.233Z,8.30
2023-01-05T16:05:51.844Z,8.30
2023-01-05T16:08:18.503Z,8.20
2023-01-05T16:10:48.281Z,8.20
2023-01-05T16:13:16.882Z,8.20
2023-01-05T16:15:46.361Z,8.10
2023-01-05T16:18:15.054Z,8.10
2023-01-05T16:20:46.383Z,8.10
2023-01-05T16:23:16.984Z,8.10
2023-01-05T16:25:49.061Z,8.10
2023-01-05T16:28:20.092Z,8.00
2023-01-05T16:30:47.188Z,8.00
2023-01-05T16:33:14.973Z,8.00
2023-01-05T16:35:46.265Z,8.10
2023-01-05T16:38:26.864Z,8.10
2023-01-05T16:41:01.189Z,8.10
2023-01-05T16:43:32.400Z,8.20
2023-01-05T16:46:26.487Z,8.20
2023-01-05T16:49:13.469Z,8.20
2023-01-05T16:51:40.913Z,8.20
2023-01-05T16:54:23.525Z,8.10
2023-01-05T16:56:58.147Z,8.10
2023-01-05T16:59:43.632Z,8.10
2023-01-05T17:02:45.969Z,8.10
2023-01-05T17:05:17.406Z,8.10
2023-01-05T17:07:45.291Z,8.20
2023-01-05T17:10:23.137Z,8.30
2023-01-05T17:12:54.807Z,8.30
2023-01-05T17:15:23.031Z,8.30
2023-01-05T17:17:50.718Z,8.30
2023-01-05T17:20:17.377Z,8.30
2023-01-05T17:22:44.053Z,8.30
2023-01-05T17:25:12.413Z,8.30
2023-01-05T17:27:39.322Z,8.20
2023-01-05T17:30:13.207Z,8.20
2023-01-05T17:32:39.934Z,8.20
2023-01-05T17:37:38.369Z,8.10
2023-01-05T17:40:05.307Z,8.20
2023-01-05T17:42:44.371Z,8.10
2023-01-05T17:45:15.505Z,8.10
2023-01-05T17:47:42.705Z,8.10
2023-01-05T17:50:13.028Z,8.10
2023-01-05T17:52:39.879Z,8.10
2023-01-05T17:55:06.640Z,8.10
2023-01-05T17:57:33.243Z,8.10
2023-01-05T17:59:59.933Z,8.00
2023-01-05T18:02:26.608Z,8.00
2023-01-05T18:04:53.302Z,7.90
2023-01-05T18:07:19.962Z,7.90
2023-01-05T18:09:46.615Z,7.80
2023-01-05T18:12:13.217Z,7.70
2023-01-05T18:14:40.091Z,7.70
2023-01-05T18:17:06.849Z,7.60
2023-01-05T18:19:33.732Z,7.50
2023-01-05T18:22:00.614Z,7.50
2023-01-05T18:24:27.310Z,7.50
2023-01-05T18:26:55.702Z,7.50
2023-01-05T18:29:22.980Z,7.50
2023-01-05T18:31:49.671Z,7.40
2023-01-05T18:34:16.317Z,7.50
2023-01-05T18:36:42.987Z,7.40
2023-01-05T18:39:09.690Z,7.40
2023-01-05T18:41:36.333Z,7.50
2023-01-05T18:44:03.135Z,7.50
2023-01-05T18:46:30.140Z,7.50
2023-01-05T18:48:56.913Z,7.60
2023-01-05T18:51:23.602Z,7.60
2023-01-05T18:53:50.244Z,7.60
2023-01-05T18:56:16.955Z,7.60
2023-01-05T18:58:43.654Z,7.60
2023-01-05T19:01:14.601Z,7.60
2023-01-05T19:03:41.315Z,7.60
2023-01-05T19:06:09.482Z,7.60
2023-01-05T19:08:36.475Z,7.60
2023-01-05T19:11:21.418Z,7.60
2023-01-05T19:13:50.276Z,7.60
2023-01-05T19:16:18.216Z,7.60
2023-01-05T19:18:48.481Z,7.70
2023-01-05T19:21:15.192Z,7.70
2023-01-05T19:23:41.809Z,7.60
2023-01-05T19:26:08.811Z,7.60
2023-01-05T19:28:36.696Z,7.60
2023-01-05T19:31:07.694Z,7.60
2023-01-05T19:33:34.844Z,7.60
2023-01-05T19:36:02.225Z,7.70
2023-01-05T19:38:29.750Z,7.70
2023-01-05T19:41:01.430Z,7.60
2023-01-05T19:43:28.077Z,7.70
2023-01-05T19:45:57.859Z,7.70
2023-01-05T19:48:24.479Z,7.70
2023-01-05T19:50:57.855Z,7.70
2023-01-05T19:53:25.538Z,7.70
2023-01-05T19:55:52.599Z,7.70
2023-01-05T19:58:29.840Z,7.70
2023-01-05T20:00:58.024Z,7.70
2023-01-05T20:03:24.625Z,7.70
2023-01-05T20:05:51.377Z,7.70
2023-01-05T20:08:18.164Z,7.70
2023-01-05T20:10:44.825Z,7.70
2023-01-05T20:13:11.481Z,7.70
2023-01-05T20:15:38.106Z,7.70
2023-01-05T20:18:04.904Z,7.60
2023-01-05T20:20:31.530Z,7.60
2023-01-05T20:22:58.197Z,7.60
2023-01-05T20:25:24.931Z,7.60
2023-01-05T20:27:51.604Z,7.60
2023-01-05T20:30:18.340Z,7.50
2023-01-05T20:32:45.032Z,7.60
2023-01-05T20:35:12.088Z,7.60
2023-01-05T20:37:38.771Z,7.60
2023-01-05T20:40:05.781Z,7.60
2023-01-05T20:42:32.663Z,7.60
2023-01-05T20:45:01.031Z,7.60
2023-01-05T20:47:29.879Z,7.60
2023-01-05T20:49:56.734Z,7.70
2023-01-05T20:52:23.443Z,7.70
2023-01-05T20:54:50.183Z,7.70
2023-01-05T20:57:16.907Z,7.70
2023-01-05T20:59:43.580Z,7.70
2023-01-05T21:02:22.871Z,7.80
2023-01-05T21:04:51.267Z,7.80
2023-01-05T21:07:17.946Z,7.80
2023-01-05T21:09:44.587Z,7.80
2023-01-05T21:12:11.246Z,7.70
2023-01-05T21:14:38.057Z,7.70
2023-01-05T21:17:04.756Z,7.70
2023-01-05T21:19:31.390Z,7.70
2023-01-05T21:21:58.310Z,7.60
2023-01-05T21:24:25.473Z,7.70
2023-01-05T21:26:52.363Z,7.60
2023-01-05T21:29:21.795Z,7.50
2023-01-05T21:31:49.265Z,7.50
2023-01-05T21:34:16.455Z,7.40
2023-01-05T21:36:45.231Z,7.40
2023-01-05T21:39:20.737Z,7.40
2023-01-05T21:42:06.741Z,7.30
2023-01-05T21:44:33.669Z,7.30
2023-01-05T21:47:00.360Z,7.20
2023-01-05T21:49:27.407Z,7.10
2023-01-05T21:52:12.667Z,7.10
2023-01-05T21:54:58.175Z,7.00
2023-01-05T21:57:24.893Z,7.00
2023-01-05T21:59:51.675Z,6.90
2023-01-05T22:02:18.351Z,6.90
2023-01-05T22:04:45.257Z,6.90
2023-01-05T22:07:12.155Z,6.80
2023-01-05T22:09:39.107Z,6.80
2023-01-05T22:12:09.296Z,6.80
2023-01-05T22:14:36.960Z,6.80
2023-01-05T22:17:04.285Z,6.80
2023-01-05T22:19:30.932Z,6.80
2023-01-05T22:21:57.568Z,6.80
2023-01-05T22:24:24.217Z,6.70
2023-01-05T22:26:50.886Z,6.70
2023-01-05T22:29:19.038Z,6.70
2023-01-05T22:31:45.864Z,6.80
2023-01-05T22:34:12.667Z,6.80
2023-01-05T22:36:39.369Z,6.80
2023-01-05T22:39:06.036Z,6.80
2023-01-05T22:41:32.726Z,6.80
2023-01-05T22:43:59.560Z,6.80
2023-01-05T22:46:27.512Z,6.80
2023-01-05T22:48:54.685Z,6.80
2023-01-05T22:51:21.357Z,6.80
2023-01-05T22:53:48.374Z,6.80
2023-01-05T22:56:16.034Z,6.70
2023-01-05T22:58:43.053Z,6.60
2023-01-05T23:01:11.058Z,6.70
2023-01-05T23:03:37.941Z,6.70
2023-01-05T23:06:04.768Z,6.70
2023-01-05T23:08:32.057Z,6.80
2023-01-05T23:11:02.671Z,6.80
2023-01-05T23:13:29.357Z,6.80
2023-01-05T23:15:56.331Z,6.80
2023-01-05T23:18:23.557Z,6.80
2023-01-05T23:21:00.250Z,6.70
2023-01-05T23:23:27.417Z,6.70
2023-01-05T23:25:54.270Z,6.70
2023-01-05T23:28:22.085Z,6.70
2023-01-05T23:30:49.942Z,6.60
2023-01-05T23:33:17.187Z,6.60
2023-01-05T23:35:44.223Z,6.60
2023-01-05T23:38:11.150Z,6.50
2023-01-05T23:40:56.062Z,6.50
2023-01-05T23:43:23.747Z,6.50
2023-01-05T23:45:50.907Z,6.50
2023-01-05T23:48:18.071Z,6.50
2023-01-05T23:50:45.908Z,6.60
2023-01-05T23:53:13.357Z,6.60
2023-01-05T23:55:40.480Z,6.60
2023-01-05T23:58:07.466Z,6.70
